Chester Gap, Virginia
Current Conditions -  °F | °C
As of 9:15 AM on Sunday 25 Jan 2015 (Local Time) from KFRR Reporting Station
Overcast Overcast  
Wind Chill: 33°   Ceiling: 4300
Heat Index: 37°   Visibility: 10mi
Dew Point: 28°   Wind: 6mph
Humidity: 70%   Direction: 200°SSW
Pressure: 29.82"   Gusts: NA
Location:  38.85°N, 78.14°W
Report Text: KFRR 251415Z AUTO 20005KT 10SM OVC043 03/M02 A2982 RMK AO1
Loading
Personal Weather Stations






























Interactive Weather Map New forecast layout! Learn more

10-Day Weather Forecast

Advertisements
Track Severe Weather on mobile